sensor_id;sensor_type;location;lat;lon;timestamp;P1;durP1;ratioP1;P2;durP2;ratioP2
67861;SDS011;54665;51.462;6.698;2023-03-01T00:01:17;17.50;;;6.68;;
67861;SDS011;54665;51.462;6.698;2023-03-01T00:03:44;15.88;;;6.57;;
67861;SDS011;54665;51.462;6.698;2023-03-01T00:06:10;16.27;;;6.30;;
67861;SDS011;54665;51.462;6.698;2023-03-01T00:08:36;13.43;;;6.22;;
67861;SDS011;54665;51.462;6.698;2023-03-01T00:11:03;12.98;;;6.20;;
67861;SDS011;54665;51.462;6.698;2023-03-01T00:13:33;14.50;;;6.35;;
67861;SDS011;54665;51.462;6.698;2023-03-01T00:16:01;15.20;;;6.13;;
67861;SDS011;54665;51.462;6.698;2023-03-01T00:18:28;13.95;;;6.13;;
67861;SDS011;54665;51.462;6.698;2023-03-01T00:20:54;16.30;;;6.67;;
67861;SDS011;54665;51.462;6.698;2023-03-01T00:23:20;16.70;;;6.78;;
67861;SDS011;54665;51.462;6.698;2023-03-01T00:25:46;14.57;;;6.32;;
67861;SDS011;54665;51.462;6.698;2023-03-01T00:28:12;16.07;;;6.50;;
67861;SDS011;54665;51.462;6.698;2023-03-01T00:30:38;15.07;;;6.90;;
67861;SDS011;54665;51.462;6.698;2023-03-01T00:33:03;15.23;;;6.50;;
67861;SDS011;54665;51.462;6.698;2023-03-01T00:35:29;13.47;;;6.33;;
67861;SDS011;54665;51.462;6.698;2023-03-01T00:37:56;14.95;;;6.40;;
67861;SDS011;54665;51.462;6.698;2023-03-01T00:40:23;15.15;;;6.45;;
67861;SDS011;54665;51.462;6.698;2023-03-01T00:42:49;15.90;;;6.57;;
67861;SDS011;54665;51.462;6.698;2023-03-01T00:45:15;17.70;;;6.90;;
67861;SDS011;54665;51.462;6.698;2023-03-01T00:47:41;21.17;;;7.45;;
67861;SDS011;54665;51.462;6.698;2023-03-01T00:50:06;14.67;;;6.70;;
67861;SDS011;54665;51.462;6.698;2023-03-01T00:52:32;19.10;;;7.30;;
67861;SDS011;54665;51.462;6.698;2023-03-01T00:54:57;17.50;;;7.40;;
67861;SDS011;54665;51.462;6.698;2023-03-01T00:57:23;16.73;;;7.30;;
67861;SDS011;54665;51.462;6.698;2023-03-01T00:59:49;15.50;;;6.47;;
67861;SDS011;54665;51.462;6.698;2023-03-01T01:02:14;16.20;;;6.77;;
67861;SDS011;54665;51.462;6.698;2023-03-01T01:04:40;16.90;;;6.97;;
67861;SDS011;54665;51.462;6.698;2023-03-01T01:07:06;16.88;;;7.05;;
67861;SDS011;54665;51.462;6.698;2023-03-01T01:09:31;15.07;;;6.47;;
67861;SDS011;54665;51.462;6.698;2023-03-01T01:11:56;17.90;;;6.93;;
67861;SDS011;54665;51.462;6.698;2023-03-01T01:14:22;18.37;;;6.80;;
67861;SDS011;54665;51.462;6.698;2023-03-01T01:16:47;19.23;;;7.37;;
67861;SDS011;54665;51.462;6.698;2023-03-01T01:19:13;17.93;;;7.43;;
67861;SDS011;54665;51.462;6.698;2023-03-01T01:21:39;18.25;;;6.82;;
67861;SDS011;54665;51.462;6.698;2023-03-01T01:24:06;19.75;;;7.57;;
67861;SDS011;54665;51.462;6.698;2023-03-01T01:26:33;18.80;;;7.13;;
67861;SDS011;54665;51.462;6.698;2023-03-01T01:28:59;19.50;;;7.78;;
67861;SDS011;54665;51.462;6.698;2023-03-01T01:31:25;20.52;;;7.35;;
67861;SDS011;54665;51.462;6.698;2023-03-01T01:33:52;26.23;;;8.32;;
67861;SDS011;54665;51.462;6.698;2023-03-01T01:36:18;19.80;;;7.90;;
67861;SDS011;54665;51.462;6.698;2023-03-01T01:38:43;18.45;;;7.45;;
67861;SDS011;54665;51.462;6.698;2023-03-01T01:41:10;18.77;;;7.78;;
67861;SDS011;54665;51.462;6.698;2023-03-01T01:43:46;18.75;;;7.57;;
67861;SDS011;54665;51.462;6.698;2023-03-01T01:48:53;17.02;;;7.63;;
67861;SDS011;54665;51.462;6.698;2023-03-01T01:51:25;16.08;;;7.10;;
67861;SDS011;54665;51.462;6.698;2023-03-01T01:53:57;17.58;;;6.88;;
67861;SDS011;54665;51.462;6.698;2023-03-01T01:56:25;21.05;;;7.22;;
67861;SDS011;54665;51.462;6.698;2023-03-01T01:58:52;17.45;;;6.97;;
67861;SDS011;54665;51.462;6.698;2023-03-01T02:01:18;18.20;;;7.05;;
67861;SDS011;54665;51.462;6.698;2023-03-01T02:03:45;21.15;;;7.65;;
67861;SDS011;54665;51.462;6.698;2023-03-01T02:08:40;19.65;;;7.28;;
67861;SDS011;54665;51.462;6.698;2023-03-01T02:11:07;18.73;;;7.20;;
67861;SDS011;54665;51.462;6.698;2023-03-01T02:13:35;18.55;;;7.20;;
67861;SDS011;54665;51.462;6.698;2023-03-01T02:16:05;19.02;;;6.70;;
67861;SDS011;54665;51.462;6.698;2023-03-01T02:18:34;16.05;;;6.63;;
67861;SDS011;54665;51.462;6.698;2023-03-01T02:23:37;16.30;;;6.47;;
67861;SDS011;54665;51.462;6.698;2023-03-01T02:26:05;16.15;;;6.65;;
67861;SDS011;54665;51.462;6.698;2023-03-01T02:28:37;13.65;;;5.53;;
67861;SDS011;54665;51.462;6.698;2023-03-01T02:31:06;16.25;;;6.10;;
67861;SDS011;54665;51.462;6.698;2023-03-01T02:33:51;14.00;;;5.30;;
67861;SDS011;54665;51.462;6.698;2023-03-01T02:36:28;14.60;;;6.13;;
67861;SDS011;54665;51.462;6.698;2023-03-01T02:38:59;18.15;;;6.70;;
67861;SDS011;54665;51.462;6.698;2023-03-01T02:41:28;16.40;;;6.53;;
67861;SDS011;54665;51.462;6.698;2023-03-01T02:43:57;17.73;;;6.88;;
67861;SDS011;54665;51.462;6.698;2023-03-01T02:46:24;18.63;;;6.30;;
67861;SDS011;54665;51.462;6.698;2023-03-01T02:48:54;16.60;;;6.28;;
67861;SDS011;54665;51.462;6.698;2023-03-01T02:55:08;18.67;;;6.47;;
67861;SDS011;54665;51.462;6.698;2023-03-01T02:57:05;19.42;;;7.03;;
67861;SDS011;54665;51.462;6.698;2023-03-01T02:59:32;14.23;;;6.07;;
67861;SDS011;54665;51.462;6.698;2023-03-01T03:02:06;17.83;;;6.85;;
67861;SDS011;54665;51.462;6.698;2023-03-01T03:04:32;17.75;;;6.30;;
67861;SDS011;54665;51.462;6.698;2023-03-01T03:06:58;15.80;;;6.90;;
67861;SDS011;54665;51.462;6.698;2023-03-01T03:09:24;16.10;;;6.38;;
67861;SDS011;54665;51.462;6.698;2023-03-01T03:11:50;17.67;;;6.57;;
67861;SDS011;54665;51.462;6.698;2023-03-01T03:14:16;17.90;;;6.80;;
67861;SDS011;54665;51.462;6.698;2023-03-01T03:16:45;19.67;;;7.60;;
67861;SDS011;54665;51.462;6.698;2023-03-01T03:19:13;16.27;;;6.85;;
67861;SDS011;54665;51.462;6.698;2023-03-01T03:21:39;16.93;;;6.73;;
67861;SDS011;54665;51.462;6.698;2023-03-01T03:24:04;16.23;;;6.15;;
67861;SDS011;54665;51.462;6.698;2023-03-01T03:26:30;17.50;;;6.20;;
67861;SDS011;54665;51.462;6.698;2023-03-01T03:28:57;17.55;;;7.22;;
67861;SDS011;54665;51.462;6.698;2023-03-01T03:31:22;19.57;;;7.03;;
67861;SDS011;54665;51.462;6.698;2023-03-01T03:33:47;18.48;;;6.97;;
67861;SDS011;54665;51.462;6.698;2023-03-01T03:36:17;18.13;;;6.43;;
67861;SDS011;54665;51.462;6.698;2023-03-01T03:38:44;17.83;;;6.45;;
67861;SDS011;54665;51.462;6.698;2023-03-01T03:41:11;17.63;;;6.72;;
67861;SDS011;54665;51.462;6.698;2023-03-01T03:43:38;16.77;;;7.47;;
67861;SDS011;54665;51.462;6.698;2023-03-01T03:46:05;17.38;;;6.38;;
67861;SDS011;54665;51.462;6.698;2023-03-01T03:48:35;19.55;;;7.32;;
67861;SDS011;54665;51.462;6.698;2023-03-01T03:51:02;15.75;;;6.70;;
67861;SDS011;54665;51.462;6.698;2023-03-01T03:53:30;19.60;;;6.88;;
67861;SDS011;54665;51.462;6.698;2023-03-01T03:55:56;17.97;;;7.07;;
67861;SDS011;54665;51.462;6.698;2023-03-01T03:58:23;18.20;;;6.80;;
67861;SDS011;54665;51.462;6.698;2023-03-01T04:00:50;18.73;;;6.68;;
67861;SDS011;54665;51.462;6.698;2023-03-01T04:03:17;17.80;;;6.93;;
67861;SDS011;54665;51.462;6.698;2023-03-01T04:05:45;18.25;;;7.25;;
67861;SDS011;54665;51.462;6.698;2023-03-01T04:08:11;17.13;;;6.50;;
67861;SDS011;54665;51.462;6.698;2023-03-01T04:10:37;15.98;;;6.25;;
67861;SDS011;54665;51.462;6.698;2023-03-01T04:13:05;18.88;;;6.93;;
67861;SDS011;54665;51.462;6.698;2023-03-01T04:15:32;15.82;;;6.18;;
67861;SDS011;54665;51.462;6.698;2023-03-01T04:17:58;16.45;;;6.50;;
67861;SDS011;54665;51.462;6.698;2023-03-01T04:20:25;20.25;;;6.70;;
67861;SDS011;54665;51.462;6.698;2023-03-01T04:22:57;15.90;;;6.88;;
67861;SDS011;54665;51.462;6.698;2023-03-01T04:25:57;14.98;;;6.35;;
67861;SDS011;54665;51.462;6.698;2023-03-01T04:28:25;16.00;;;6.47;;
67861;SDS011;54665;51.462;6.698;2023-03-01T04:31:01;16.92;;;6.68;;
67861;SDS011;54665;51.462;6.698;2023-03-01T04:33:48;14.98;;;5.93;;
67861;SDS011;54665;51.462;6.698;2023-03-01T04:36:19;16.02;;;6.18;;
67861;SDS011;54665;51.462;6.698;2023-03-01T04:38:46;14.57;;;5.13;;
67861;SDS011;54665;51.462;6.698;2023-03-01T04:41:15;18.10;;;6.43;;
67861;SDS011;54665;51.462;6.698;2023-03-01T04:43:42;15.55;;;6.18;;
67861;SDS011;54665;51.462;6.698;2023-03-01T04:46:08;14.00;;;5.72;;
67861;SDS011;54665;51.462;6.698;2023-03-01T04:48:36;17.92;;;6.65;;
67861;SDS011;54665;51.462;6.698;2023-03-01T04:51:02;18.05;;;6.68;;
67861;SDS011;54665;51.462;6.698;2023-03-01T04:53:29;15.60;;;6.10;;
67861;SDS011;54665;51.462;6.698;2023-03-01T04:55:55;17.63;;;6.50;;
67861;SDS011;54665;51.462;6.698;2023-03-01T04:58:24;18.20;;;6.35;;
67861;SDS011;54665;51.462;6.698;2023-03-01T05:00:51;14.70;;;5.78;;
67861;SDS011;54665;51.462;6.698;2023-03-01T05:03:17;17.75;;;6.68;;
67861;SDS011;54665;51.462;6.698;2023-03-01T05:05:43;18.42;;;6.38;;
67861;SDS011;54665;51.462;6.698;2023-03-01T05:08:10;13.75;;;5.97;;
67861;SDS011;54665;51.462;6.698;2023-03-01T05:10:42;18.40;;;6.60;;
67861;SDS011;54665;51.462;6.698;2023-03-01T05:13:11;15.48;;;6.57;;
67861;SDS011;54665;51.462;6.698;2023-03-01T05:15:38;18.63;;;6.55;;
67861;SDS011;54665;51.462;6.698;2023-03-01T05:18:04;17.98;;;7.15;;
67861;SDS011;54665;51.462;6.698;2023-03-01T05:20:36;20.35;;;7.15;;
67861;SDS011;54665;51.462;6.698;2023-03-01T05:23:02;14.67;;;6.43;;
67861;SDS011;54665;51.462;6.698;2023-03-01T05:25:30;17.30;;;7.05;;
67861;SDS011;54665;51.462;6.698;2023-03-01T05:28:02;19.45;;;6.85;;
67861;SDS011;54665;51.462;6.698;2023-03-01T05:30:33;18.77;;;7.25;;
67861;SDS011;54665;51.462;6.698;2023-03-01T05:32:59;18.08;;;7.22;;
67861;SDS011;54665;51.462;6.698;2023-03-01T05:35:25;15.27;;;6.10;;
67861;SDS011;54665;51.462;6.698;2023-03-01T05:37:51;14.77;;;6.10;;
67861;SDS011;54665;51.462;6.698;2023-03-01T05:40:18;14.27;;;5.57;;
67861;SDS011;54665;51.462;6.698;2023-03-01T05:42:46;22.50;;;6.65;;
67861;SDS011;54665;51.462;6.698;2023-03-01T05:45:22;17.27;;;6.55;;
67861;SDS011;54665;51.462;6.698;2023-03-01T05:47:50;18.13;;;6.80;;
67861;SDS011;54665;51.462;6.698;2023-03-01T05:50:17;19.23;;;6.97;;
67861;SDS011;54665;51.462;6.698;2023-03-01T05:52:45;16.23;;;6.50;;
67861;SDS011;54665;51.462;6.698;2023-03-01T05:55:31;13.15;;;4.75;;
67861;SDS011;54665;51.462;6.698;2023-03-01T05:57:58;25.50;;;9.07;;
67861;SDS011;54665;51.462;6.698;2023-03-01T06:00:24;18.00;;;6.60;;
67861;SDS011;54665;51.462;6.698;2023-03-01T06:02:50;21.80;;;7.53;;
67861;SDS011;54665;51.462;6.698;2023-03-01T06:05:17;15.68;;;6.25;;
67861;SDS011;54665;51.462;6.698;2023-03-01T06:07:42;21.80;;;7.13;;
67861;SDS011;54665;51.462;6.698;2023-03-01T06:10:09;17.38;;;6.75;;
67861;SDS011;54665;51.462;6.698;2023-03-01T06:12:36;14.73;;;5.80;;
67861;SDS011;54665;51.462;6.698;2023-03-01T06:15:03;16.52;;;6.45;;
67861;SDS011;54665;51.462;6.698;2023-03-01T06:17:29;16.70;;;6.90;;
67861;SDS011;54665;51.462;6.698;2023-03-01T06:19:56;16.20;;;6.18;;
67861;SDS011;54665;51.462;6.698;2023-03-01T06:22:22;21.87;;;7.20;;
67861;SDS011;54665;51.462;6.698;2023-03-01T06:24:47;18.80;;;6.87;;
67861;SDS011;54665;51.462;6.698;2023-03-01T06:27:12;18.80;;;6.72;;
67861;SDS011;54665;51.462;6.698;2023-03-01T06:29:38;25.40;;;8.23;;
67861;SDS011;54665;51.462;6.698;2023-03-01T06:32:03;26.00;;;8.90;;
67861;SDS011;54665;51.462;6.698;2023-03-01T06:34:29;25.70;;;9.03;;
67861;SDS011;54665;51.462;6.698;2023-03-01T06:36:55;24.83;;;7.50;;
67861;SDS011;54665;51.462;6.698;2023-03-01T06:39:21;47.93;;;12.97;;
67861;SDS011;54665;51.462;6.698;2023-03-01T06:41:47;23.90;;;7.55;;
67861;SDS011;54665;51.462;6.698;2023-03-01T06:44:12;20.50;;;7.03;;
67861;SDS011;54665;51.462;6.698;2023-03-01T06:46:38;18.37;;;6.77;;
67861;SDS011;54665;51.462;6.698;2023-03-01T06:49:04;24.02;;;7.85;;
67861;SDS011;54665;51.462;6.698;2023-03-01T06:51:34;22.75;;;8.05;;
67861;SDS011;54665;51.462;6.698;2023-03-01T06:53:59;17.20;;;6.97;;
67861;SDS011;54665;51.462;6.698;2023-03-01T06:56:25;16.77;;;6.55;;
67861;SDS011;54665;51.462;6.698;2023-03-01T06:58:50;19.08;;;6.70;;
67861;SDS011;54665;51.462;6.698;2023-03-01T07:01:15;14.80;;;5.83;;
67861;SDS011;54665;51.462;6.698;2023-03-01T07:03:41;18.87;;;7.40;;
67861;SDS011;54665;51.462;6.698;2023-03-01T07:06:09;20.52;;;7.40;;
67861;SDS011;54665;51.462;6.698;2023-03-01T07:08:34;27.10;;;8.93;;
67861;SDS011;54665;51.462;6.698;2023-03-01T07:11:00;22.23;;;7.47;;
67861;SDS011;54665;51.462;6.698;2023-03-01T07:13:27;22.40;;;7.45;;
67861;SDS011;54665;51.462;6.698;2023-03-01T07:15:53;20.08;;;7.03;;
67861;SDS011;54665;51.462;6.698;2023-03-01T07:18:18;24.27;;;8.30;;
67861;SDS011;54665;51.462;6.698;2023-03-01T07:20:44;22.10;;;8.93;;
67861;SDS011;54665;51.462;6.698;2023-03-01T07:23:09;19.88;;;7.95;;
67861;SDS011;54665;51.462;6.698;2023-03-01T07:25:35;21.42;;;7.55;;
67861;SDS011;54665;51.462;6.698;2023-03-01T07:28:00;47.30;;;15.53;;
67861;SDS011;54665;51.462;6.698;2023-03-01T07:30:26;30.60;;;10.90;;
67861;SDS011;54665;51.462;6.698;2023-03-01T07:32:53;24.93;;;9.87;;
67861;SDS011;54665;51.462;6.698;2023-03-01T07:35:19;19.38;;;6.93;;
67861;SDS011;54665;51.462;6.698;2023-03-01T07:37:44;18.50;;;8.00;;
67861;SDS011;54665;51.462;6.698;2023-03-01T07:40:10;22.63;;;8.40;;
67861;SDS011;54665;51.462;6.698;2023-03-01T07:42:37;20.93;;;8.40;;
67861;SDS011;54665;51.462;6.698;2023-03-01T07:45:02;17.95;;;7.30;;
67861;SDS011;54665;51.462;6.698;2023-03-01T07:47:29;18.50;;;7.40;;
67861;SDS011;54665;51.462;6.698;2023-03-01T07:49:54;16.67;;;6.45;;
67861;SDS011;54665;51.462;6.698;2023-03-01T07:52:19;21.10;;;8.20;;
67861;SDS011;54665;51.462;6.698;2023-03-01T07:54:45;22.73;;;8.80;;
67861;SDS011;54665;51.462;6.698;2023-03-01T07:57:10;23.23;;;8.80;;
67861;SDS011;54665;51.462;6.698;2023-03-01T07:59:36;18.27;;;5.80;;
67861;SDS011;54665;51.462;6.698;2023-03-01T08:02:01;18.93;;;7.60;;
67861;SDS011;54665;51.462;6.698;2023-03-01T08:04:27;23.70;;;7.97;;
67861;SDS011;54665;51.462;6.698;2023-03-01T08:06:53;20.83;;;7.80;;
67861;SDS011;54665;51.462;6.698;2023-03-01T08:09:21;20.95;;;8.48;;
67861;SDS011;54665;51.462;6.698;2023-03-01T08:11:47;22.05;;;7.50;;
67861;SDS011;54665;51.462;6.698;2023-03-01T08:14:12;19.17;;;7.73;;
67861;SDS011;54665;51.462;6.698;2023-03-01T08:16:38;14.83;;;6.63;;
67861;SDS011;54665;51.462;6.698;2023-03-01T08:19:04;15.30;;;6.97;;
67861;SDS011;54665;51.462;6.698;2023-03-01T08:21:36;18.75;;;7.60;;
67861;SDS011;54665;51.462;6.698;2023-03-01T08:24:03;13.80;;;6.05;;
67861;SDS011;54665;51.462;6.698;2023-03-01T08:26:29;18.90;;;8.40;;
67861;SDS011;54665;51.462;6.698;2023-03-01T08:28:55;16.77;;;7.63;;
67861;SDS011;54665;51.462;6.698;2023-03-01T08:33:52;22.40;;;7.82;;
67861;SDS011;54665;51.462;6.698;2023-03-01T08:36:23;16.93;;;7.63;;
67861;SDS011;54665;51.462;6.698;2023-03-01T08:38:51;16.25;;;7.45;;
67861;SDS011;54665;51.462;6.698;2023-03-01T08:41:17;17.60;;;7.10;;
67861;SDS011;54665;51.462;6.698;2023-03-01T08:43:43;18.00;;;7.95;;
67861;SDS011;54665;51.462;6.698;2023-03-01T08:46:08;14.77;;;7.00;;
67861;SDS011;54665;51.462;6.698;2023-03-01T08:48:34;17.80;;;7.05;;
67861;SDS011;54665;51.462;6.698;2023-03-01T08:51:10;17.87;;;7.07;;
67861;SDS011;54665;51.462;6.698;2023-03-01T08:53:40;15.82;;;6.15;;
67861;SDS011;54665;51.462;6.698;2023-03-01T08:56:06;14.15;;;6.07;;
67861;SDS011;54665;51.462;6.698;2023-03-01T08:58:32;15.67;;;6.60;;
67861;SDS011;54665;51.462;6.698;2023-03-01T09:00:58;16.90;;;6.80;;
67861;SDS011;54665;51.462;6.698;2023-03-01T09:03:23;16.03;;;6.60;;
67861;SDS011;54665;51.462;6.698;2023-03-01T09:05:49;14.00;;;6.47;;
67861;SDS011;54665;51.462;6.698;2023-03-01T09:08:18;18.38;;;6.80;;
67861;SDS011;54665;51.462;6.698;2023-03-01T09:10:44;16.17;;;6.17;;
67861;SDS011;54665;51.462;6.698;2023-03-01T09:13:11;16.70;;;7.43;;
67861;SDS011;54665;51.462;6.698;2023-03-01T09:15:36;15.27;;;6.73;;
67861;SDS011;54665;51.462;6.698;2023-03-01T09:18:03;14.40;;;5.77;;
67861;SDS011;54665;51.462;6.698;2023-03-01T09:20:29;12.68;;;5.68;;
67861;SDS011;54665;51.462;6.698;2023-03-01T09:22:56;13.75;;;6.22;;
67861;SDS011;54665;51.462;6.698;2023-03-01T09:25:21;13.27;;;5.93;;
67861;SDS011;54665;51.462;6.698;2023-03-01T09:27:50;14.00;;;6.00;;
67861;SDS011;54665;51.462;6.698;2023-03-01T09:30:16;13.02;;;4.95;;
67861;SDS011;54665;51.462;6.698;2023-03-01T09:32:42;12.97;;;6.10;;
67861;SDS011;54665;51.462;6.698;2023-03-01T09:35:08;13.90;;;5.75;;
67861;SDS011;54665;51.462;6.698;2023-03-01T09:37:34;12.88;;;5.60;;
67861;SDS011;54665;51.462;6.698;2023-03-01T09:40:00;12.27;;;5.83;;
67861;SDS011;54665;51.462;6.698;2023-03-01T09:42:27;15.43;;;6.40;;
67861;SDS011;54665;51.462;6.698;2023-03-01T09:44:57;13.98;;;5.63;;
67861;SDS011;54665;51.462;6.698;2023-03-01T09:47:28;14.07;;;5.85;;
67861;SDS011;54665;51.462;6.698;2023-03-01T09:50:02;13.90;;;6.18;;
67861;SDS011;54665;51.462;6.698;2023-03-01T10:00:56;12.68;;;6.13;;
67861;SDS011;54665;51.462;6.698;2023-03-01T10:06:04;13.27;;;6.00;;
67861;SDS011;54665;51.462;6.698;2023-03-01T10:08:56;13.25;;;5.85;;
67861;SDS011;54665;51.462;6.698;2023-03-01T10:11:27;13.18;;;6.00;;
67861;SDS011;54665;51.462;6.698;2023-03-01T10:19:01;12.17;;;5.93;;
67861;SDS011;54665;51.462;6.698;2023-03-01T10:21:28;13.07;;;5.73;;
67861;SDS011;54665;51.462;6.698;2023-03-01T10:23:58;13.15;;;5.88;;
67861;SDS011;54665;51.462;6.698;2023-03-01T10:27:19;12.48;;;5.57;;
67861;SDS011;54665;51.462;6.698;2023-03-01T10:29:34;10.20;;;4.80;;
67861;SDS011;54665;51.462;6.698;2023-03-01T10:32:05;12.13;;;5.00;;
67861;SDS011;54665;51.462;6.698;2023-03-01T10:34:33;10.47;;;5.30;;
67861;SDS011;54665;51.462;6.698;2023-03-01T10:39:53;14.75;;;5.95;;
67861;SDS011;54665;51.462;6.698;2023-03-01T10:42:43;11.52;;;5.72;;
67861;SDS011;54665;51.462;6.698;2023-03-01T10:45:17;13.50;;;5.32;;
67861;SDS011;54665;51.462;6.698;2023-03-01T10:51:06;13.13;;;4.90;;
67861;SDS011;54665;51.462;6.698;2023-03-01T10:56:12;11.05;;;5.00;;
67861;SDS011;54665;51.462;6.698;2023-03-01T10:58:40;13.15;;;5.50;;
67861;SDS011;54665;51.462;6.698;2023-03-01T11:03:55;12.05;;;5.47;;
67861;SDS011;54665;51.462;6.698;2023-03-01T11:06:28;13.10;;;5.37;;
67861;SDS011;54665;51.462;6.698;2023-03-01T11:08:53;12.93;;;4.88;;
67861;SDS011;54665;51.462;6.698;2023-03-01T11:11:21;10.93;;;4.63;;
67861;SDS011;54665;51.462;6.698;2023-03-01T11:16:27;13.77;;;5.32;;
67861;SDS011;54665;51.462;6.698;2023-03-01T11:18:58;12.40;;;5.20;;
67861;SDS011;54665;51.462;6.698;2023-03-01T11:21:40;14.25;;;5.38;;
67861;SDS011;54665;51.462;6.698;2023-03-01T11:24:12;10.73;;;4.63;;
67861;SDS011;54665;51.462;6.698;2023-03-01T11:26:41;9.52;;;4.20;;
67861;SDS011;54665;51.462;6.698;2023-03-01T11:29:13;10.38;;;4.47;;
67861;SDS011;54665;51.462;6.698;2023-03-01T11:31:47;9.73;;;4.40;;
67861;SDS011;54665;51.462;6.698;2023-03-01T11:34:15;9.52;;;4.68;;
67861;SDS011;54665;51.462;6.698;2023-03-01T11:36:52;10.88;;;4.97;;
67861;SDS011;54665;51.462;6.698;2023-03-01T11:39:31;12.25;;;4.80;;
67861;SDS011;54665;51.462;6.698;2023-03-01T11:42:13;10.90;;;5.00;;
67861;SDS011;54665;51.462;6.698;2023-03-01T11:44:43;11.77;;;4.67;;
67861;SDS011;54665;51.462;6.698;2023-03-01T11:50:14;10.73;;;4.35;;
67861;SDS011;54665;51.462;6.698;2023-03-01T11:55:53;10.55;;;4.68;;
67861;SDS011;54665;51.462;6.698;2023-03-01T12:09:02;12.05;;;5.55;;
67861;SDS011;54665;51.462;6.698;2023-03-01T12:20:14;10.27;;;4.90;;
67861;SDS011;54665;51.462;6.698;2023-03-01T12:25:24;10.93;;;5.63;;
67861;SDS011;54665;51.462;6.698;2023-03-01T12:31:13;10.82;;;4.82;;
67861;SDS011;54665;51.462;6.698;2023-03-01T12:34:03;11.95;;;4.72;;
67861;SDS011;54665;51.462;6.698;2023-03-01T12:39:45;12.90;;;4.77;;
67861;SDS011;54665;51.462;6.698;2023-03-01T12:45:24;13.27;;;5.78;;
67861;SDS011;54665;51.462;6.698;2023-03-01T12:48:05;11.50;;;4.93;;
67861;SDS011;54665;51.462;6.698;2023-03-01T12:50:52;12.55;;;5.65;;
67861;SDS011;54665;51.462;6.698;2023-03-01T12:53:24;10.67;;;4.87;;
67861;SDS011;54665;51.462;6.698;2023-03-01T12:55:52;7.65;;;3.80;;
67861;SDS011;54665;51.462;6.698;2023-03-01T12:58:24;10.05;;;4.55;;
67861;SDS011;54665;51.462;6.698;2023-03-01T13:09:17;12.43;;;4.68;;
67861;SDS011;54665;51.462;6.698;2023-03-01T13:17:49;11.43;;;5.30;;
67861;SDS011;54665;51.462;6.698;2023-03-01T13:20:17;9.77;;;4.93;;
67861;SDS011;54665;51.462;6.698;2023-03-01T13:22:46;10.63;;;4.95;;
67861;SDS011;54665;51.462;6.698;2023-03-01T13:25:19;11.40;;;5.40;;
67861;SDS011;54665;51.462;6.698;2023-03-01T13:27:45;9.25;;;4.30;;
67861;SDS011;54665;51.462;6.698;2023-03-01T13:30:37;10.27;;;4.80;;
67861;SDS011;54665;51.462;6.698;2023-03-01T13:35:56;10.18;;;4.22;;
67861;SDS011;54665;51.462;6.698;2023-03-01T13:39:13;13.25;;;5.10;;
67861;SDS011;54665;51.462;6.698;2023-03-01T13:41:13;10.13;;;4.00;;
67861;SDS011;54665;51.462;6.698;2023-03-01T13:43:41;10.02;;;4.38;;
67861;SDS011;54665;51.462;6.698;2023-03-01T13:46:09;10.60;;;4.90;;
67861;SDS011;54665;51.462;6.698;2023-03-01T13:48:45;13.38;;;4.80;;
67861;SDS011;54665;51.462;6.698;2023-03-01T13:51:15;11.55;;;5.32;;
67861;SDS011;54665;51.462;6.698;2023-03-01T13:53:45;11.27;;;5.75;;
67861;SDS011;54665;51.462;6.698;2023-03-01T13:56:16;13.80;;;5.22;;
67861;SDS011;54665;51.462;6.698;2023-03-01T13:59:20;14.97;;;5.97;;
67861;SDS011;54665;51.462;6.698;2023-03-01T14:01:53;11.05;;;4.93;;
67861;SDS011;54665;51.462;6.698;2023-03-01T14:04:24;11.43;;;5.43;;
67861;SDS011;54665;51.462;6.698;2023-03-01T14:09:44;12.93;;;4.90;;
67861;SDS011;54665;51.462;6.698;2023-03-01T14:13:00;14.53;;;5.63;;
67861;SDS011;54665;51.462;6.698;2023-03-01T14:18:10;12.32;;;4.95;;
67861;SDS011;54665;51.462;6.698;2023-03-01T14:20:47;13.00;;;5.35;;
67861;SDS011;54665;51.462;6.698;2023-03-01T14:23:18;10.30;;;4.43;;
67861;SDS011;54665;51.462;6.698;2023-03-01T14:25:47;12.10;;;5.10;;
67861;SDS011;54665;51.462;6.698;2023-03-01T14:28:16;10.50;;;4.95;;
67861;SDS011;54665;51.462;6.698;2023-03-01T14:30:45;7.93;;;3.75;;
67861;SDS011;54665;51.462;6.698;2023-03-01T14:33:18;10.50;;;4.60;;
67861;SDS011;54665;51.462;6.698;2023-03-01T14:38:30;12.80;;;5.10;;
67861;SDS011;54665;51.462;6.698;2023-03-01T14:41:02;10.18;;;4.60;;
67861;SDS011;54665;51.462;6.698;2023-03-01T14:43:31;11.40;;;5.10;;
67861;SDS011;54665;51.462;6.698;2023-03-01T14:45:57;11.07;;;4.60;;
67861;SDS011;54665;51.462;6.698;2023-03-01T14:48:23;12.57;;;4.70;;
67861;SDS011;54665;51.462;6.698;2023-03-01T14:50:49;11.45;;;4.95;;
67861;SDS011;54665;51.462;6.698;2023-03-01T14:53:17;10.98;;;4.88;;
67861;SDS011;54665;51.462;6.698;2023-03-01T14:55:55;10.83;;;4.60;;
67861;SDS011;54665;51.462;6.698;2023-03-01T14:58:25;10.85;;;5.00;;
67861;SDS011;54665;51.462;6.698;2023-03-01T15:00:53;12.00;;;4.78;;
67861;SDS011;54665;51.462;6.698;2023-03-01T15:03:24;14.05;;;5.05;;
67861;SDS011;54665;51.462;6.698;2023-03-01T15:05:50;14.40;;;5.23;;
67861;SDS011;54665;51.462;6.698;2023-03-01T15:08:19;12.30;;;5.32;;
67861;SDS011;54665;51.462;6.698;2023-03-01T15:10:58;11.27;;;5.13;;
67861;SDS011;54665;51.462;6.698;2023-03-01T15:13:41;13.52;;;5.32;;
67861;SDS011;54665;51.462;6.698;2023-03-01T15:16:11;12.73;;;5.50;;
67861;SDS011;54665;51.462;6.698;2023-03-01T15:18:38;11.50;;;4.97;;
67861;SDS011;54665;51.462;6.698;2023-03-01T15:23:54;14.38;;;6.53;;
67861;SDS011;54665;51.462;6.698;2023-03-01T15:26:30;11.50;;;5.07;;
67861;SDS011;54665;51.462;6.698;2023-03-01T15:29:00;14.30;;;5.88;;
67861;SDS011;54665;51.462;6.698;2023-03-01T15:31:36;18.60;;;7.70;;
67861;SDS011;54665;51.462;6.698;2023-03-01T15:34:10;14.82;;;5.97;;
67861;SDS011;54665;51.462;6.698;2023-03-01T15:36:58;12.88;;;5.47;;
67861;SDS011;54665;51.462;6.698;2023-03-01T15:39:39;17.02;;;6.32;;
67861;SDS011;54665;51.462;6.698;2023-03-01T15:42:09;15.45;;;5.80;;
67861;SDS011;54665;51.462;6.698;2023-03-01T15:44:39;10.97;;;5.10;;
67861;SDS011;54665;51.462;6.698;2023-03-01T15:47:26;12.88;;;5.53;;
67861;SDS011;54665;51.462;6.698;2023-03-01T15:49:54;20.20;;;8.30;;
67861;SDS011;54665;51.462;6.698;2023-03-01T15:54:55;9.18;;;4.25;;
67861;SDS011;54665;51.462;6.698;2023-03-01T15:57:26;11.20;;;4.97;;
67861;SDS011;54665;51.462;6.698;2023-03-01T15:59:52;12.85;;;5.47;;
67861;SDS011;54665;51.462;6.698;2023-03-01T16:02:17;12.50;;;5.10;;
67861;SDS011;54665;51.462;6.698;2023-03-01T16:04:46;10.57;;;4.80;;
67861;SDS011;54665;51.462;6.698;2023-03-01T16:07:12;13.27;;;5.65;;
67861;SDS011;54665;51.462;6.698;2023-03-01T16:09:38;12.37;;;4.57;;
67861;SDS011;54665;51.462;6.698;2023-03-01T16:12:03;10.73;;;4.45;;
67861;SDS011;54665;51.462;6.698;2023-03-01T16:14:29;12.30;;;4.73;;
67861;SDS011;54665;51.462;6.698;2023-03-01T16:16:54;11.13;;;4.82;;
67861;SDS011;54665;51.462;6.698;2023-03-01T16:19:20;11.67;;;4.77;;
67861;SDS011;54665;51.462;6.698;2023-03-01T16:21:45;12.17;;;5.33;;
67861;SDS011;54665;51.462;6.698;2023-03-01T16:24:12;16.05;;;5.70;;
67861;SDS011;54665;51.462;6.698;2023-03-01T16:26:38;14.35;;;4.97;;
67861;SDS011;54665;51.462;6.698;2023-03-01T16:29:03;10.33;;;4.10;;
67861;SDS011;54665;51.462;6.698;2023-03-01T16:31:29;13.93;;;5.10;;
67861;SDS011;54665;51.462;6.698;2023-03-01T16:33:56;10.73;;;4.50;;
67861;SDS011;54665;51.462;6.698;2023-03-01T16:36:23;13.63;;;5.30;;
67861;SDS011;54665;51.462;6.698;2023-03-01T16:38:50;13.07;;;5.10;;